createdAt,value
2018-05-11T00:02:02.419Z,12.03
2018-05-11T00:04:30.715Z,12.01
2018-05-11T00:06:59.851Z,11.96
2018-05-11T00:09:28.157Z,11.99
2018-05-11T00:11:56.659Z,12.01
2018-05-11T00:14:24.942Z,11.97
2018-05-11T00:16:55.626Z,12.05
2018-05-11T00:19:23.915Z,11.96
2018-05-11T00:21:52.910Z,11.97
2018-05-11T00:24:21.288Z,12.08
2018-05-11T00:26:49.561Z,11.94
2018-05-11T00:29:18.455Z,11.98
2018-05-11T00:31:46.726Z,11.95
2018-05-11T00:34:15.028Z,11.94
2018-05-11T00:36:43.691Z,11.96
2018-05-11T00:39:12.348Z,11.97
2018-05-11T00:41:40.672Z,11.94
2018-05-11T00:44:08.943Z,11.98
2018-05-11T00:46:37.351Z,12.00
2018-05-11T00:49:05.650Z,11.97
2018-05-11T00:51:35.578Z,11.98
2018-05-11T00:54:04.330Z,12.04
2018-05-11T00:56:32.982Z,12.03
2018-05-11T00:59:01.791Z,11.97
2018-05-11T01:01:30.477Z,11.97
2018-05-11T01:03:59.415Z,11.96
2018-05-11T01:06:28.467Z,11.92
2018-05-11T01:08:56.778Z,11.93
2018-05-11T01:11:25.830Z,11.97
2018-05-11T01:13:54.415Z,11.94
2018-05-11T01:16:22.713Z,11.86
2018-05-11T01:18:51.760Z,11.89
2018-05-11T01:21:21.615Z,11.88
2018-05-11T01:23:49.973Z,11.91
2018-05-11T01:26:18.263Z,11.91
2018-05-11T01:28:46.772Z,11.91
2018-05-11T01:31:15.622Z,11.86
2018-05-11T01:33:44.686Z,11.85
2018-05-11T01:36:13.982Z,11.82
2018-05-11T01:38:43.618Z,11.87
2018-05-11T01:41:11.918Z,11.89
2018-05-11T01:43:40.398Z,11.87
2018-05-11T01:46:09.036Z,11.83
2018-05-11T01:48:38.134Z,11.80
2018-05-11T01:51:07.174Z,11.80
2018-05-11T01:53:35.485Z,11.81
2018-05-11T01:56:03.783Z,11.80
2018-05-11T01:58:32.859Z,11.90
2018-05-11T02:01:02.592Z,11.84
2018-05-11T02:03:32.414Z,11.83
2018-05-11T02:06:01.507Z,11.89
2018-05-11T02:08:30.570Z,11.87
2018-05-11T02:10:58.924Z,11.82
2018-05-11T02:13:27.647Z,11.82
2018-05-11T02:15:56.419Z,11.86
2018-05-11T02:18:24.702Z,11.84
2018-05-11T02:20:53.265Z,11.79
2018-05-11T02:23:21.923Z,11.74
2018-05-11T02:25:50.735Z,11.75
2018-05-11T02:28:20.361Z,11.80
2018-05-11T02:30:48.646Z,11.76
2018-05-11T02:33:17.799Z,11.78
2018-05-11T02:35:46.738Z,11.78
2018-05-11T02:38:15.220Z,11.80
2018-05-11T02:40:43.850Z,11.80
2018-05-11T02:43:13.628Z,11.87
2018-05-11T02:45:42.535Z,11.85
2018-05-11T02:48:11.610Z,11.85
2018-05-11T02:50:40.447Z,11.79
2018-05-11T02:53:09.856Z,11.84
2018-05-11T02:55:38.568Z,11.79
2018-05-11T02:58:06.838Z,11.79
2018-05-11T03:00:35.131Z,11.81
2018-05-11T03:03:04.095Z,11.73
2018-05-11T03:05:32.819Z,11.79
2018-05-11T03:08:01.124Z,11.70
2018-05-11T03:10:29.533Z,11.68
2018-05-11T03:12:58.471Z,11.66
2018-05-11T03:15:26.763Z,11.72
2018-05-11T03:17:55.212Z,11.71
2018-05-11T03:20:23.511Z,11.73
2018-05-11T03:22:51.807Z,11.69
2018-05-11T03:25:20.098Z,11.73
2018-05-11T03:27:48.759Z,11.66
2018-05-11T03:30:18.762Z,11.63
2018-05-11T03:32:48.451Z,11.62
2018-05-11T03:35:16.755Z,11.62
2018-05-11T03:37:45.999Z,11.61
2018-05-11T03:40:15.698Z,11.57
2018-05-11T03:42:45.108Z,11.63
2018-05-11T03:45:14.695Z,11.58
2018-05-11T03:47:44.178Z,11.61
2018-05-11T03:50:13.258Z,11.61
2018-05-11T03:52:41.539Z,11.68
2018-05-11T03:55:09.815Z,11.68
2018-05-11T03:57:38.123Z,11.64
2018-05-11T04:00:07.429Z,11.63
2018-05-11T04:02:54.323Z,11.59
2018-05-11T04:05:40.449Z,11.62
2018-05-11T04:08:27.546Z,11.56
2018-05-11T04:10:57.190Z,11.63
2018-05-11T04:13:26.227Z,11.64
2018-05-11T04:15:54.991Z,11.66
2018-05-11T04:18:24.035Z,11.65
2018-05-11T04:20:52.374Z,11.60
2018-05-11T04:23:21.674Z,11.66
2018-05-11T04:25:50.722Z,11.66
2018-05-11T04:28:19.031Z,11.75
2018-05-11T04:30:48.126Z,11.69
2018-05-11T04:33:17.796Z,11.65
2018-05-11T04:35:46.254Z,11.69
2018-05-11T04:38:15.561Z,11.67
2018-05-11T04:40:43.838Z,11.64
2018-05-11T04:43:12.218Z,11.58
2018-05-11T04:45:40.491Z,11.61
2018-05-11T04:48:09.190Z,11.67
2018-05-11T04:50:38.127Z,11.64
2018-05-11T04:53:06.838Z,11.56
2018-05-11T04:55:35.583Z,11.56
2018-05-11T04:58:04.178Z,11.57
2018-05-11T05:00:34.059Z,11.58
2018-05-11T05:03:02.624Z,11.54
2018-05-11T05:05:30.910Z,11.53
2018-05-11T05:07:59.449Z,11.61
2018-05-11T05:10:28.442Z,11.50
2018-05-11T05:12:57.234Z,11.54
2018-05-11T05:15:26.331Z,11.51
2018-05-11T05:17:54.731Z,11.47
2018-05-11T05:20:23.899Z,11.45
2018-05-11T05:22:52.211Z,11.49
2018-05-11T05:25:21.270Z,11.53
2018-05-11T05:27:50.239Z,11.54
2018-05-11T05:30:18.523Z,11.57
2018-05-11T05:32:46.890Z,11.61
2018-05-11T05:35:15.580Z,11.70
2018-05-11T05:37:45.034Z,11.68
2018-05-11T05:40:14.885Z,11.73
2018-05-11T05:42:43.271Z,11.78
2018-05-11T05:45:12.231Z,11.74
2018-05-11T05:47:41.289Z,11.95
2018-05-11T05:50:09.681Z,11.96
2018-05-11T05:52:38.587Z,12.08
2018-05-11T05:55:06.938Z,12.03
2018-05-11T05:57:36.032Z,12.13
2018-05-11T06:00:04.815Z,12.19
2018-05-11T06:02:33.615Z,12.28
2018-05-11T06:05:03.280Z,12.18
2018-05-11T06:07:31.558Z,12.10
2018-05-11T06:10:00.754Z,12.13
2018-05-11T06:12:29.028Z,12.17
2018-05-11T06:14:58.231Z,12.24
2018-05-11T06:17:27.201Z,12.20
2018-05-11T06:19:55.683Z,12.18
2018-05-11T06:22:24.324Z,12.23
2018-05-11T06:24:52.656Z,12.23
2018-05-11T06:27:22.518Z,12.38
2018-05-11T06:29:50.799Z,12.44
2018-05-11T06:32:19.175Z,12.42
2018-05-11T06:34:47.678Z,12.55
2018-05-11T06:37:16.663Z,12.52
2018-05-11T06:39:46.486Z,12.72
2018-05-11T06:42:14.758Z,12.64
2018-05-11T06:44:43.066Z,12.70
2018-05-11T06:47:12.921Z,12.75
2018-05-11T06:49:41.220Z,12.82
2018-05-11T06:52:10.015Z,12.81
2018-05-11T06:54:38.313Z,12.93
2018-05-11T06:57:07.303Z,13.01
2018-05-11T06:59:36.367Z,13.04
2018-05-11T07:02:04.766Z,12.98
2018-05-11T07:04:33.538Z,13.25
2018-05-11T07:07:01.922Z,13.24
2018-05-11T07:09:30.308Z,13.26
2018-05-11T07:11:58.791Z,13.16
2018-05-11T07:14:27.160Z,13.13
2018-05-11T07:16:56.359Z,13.17
2018-05-11T07:19:26.024Z,13.13
2018-05-11T07:21:54.875Z,13.04
2018-05-11T07:24:23.158Z,13.26
2018-05-11T07:26:51.532Z,13.33
2018-05-11T07:29:19.819Z,13.24
2018-05-11T07:31:48.606Z,13.16
2018-05-11T07:34:17.171Z,13.31
2018-05-11T07:36:46.071Z,13.43
2018-05-11T07:39:14.747Z,13.45
2018-05-11T07:41:43.551Z,13.43
2018-05-11T07:44:11.853Z,13.50
2018-05-11T07:46:40.746Z,13.66
2018-05-11T07:49:09.654Z,13.86
2018-05-11T07:51:38.794Z,13.90
2018-05-11T07:54:08.464Z,14.12
2018-05-11T07:56:37.711Z,14.06
2018-05-11T07:59:05.978Z,13.97
2018-05-11T08:01:34.979Z,13.97
2018-05-11T08:04:03.309Z,14.08
2018-05-11T08:06:31.567Z,13.90
2018-05-11T08:09:00.666Z,13.92
2018-05-11T08:11:29.262Z,13.75
2018-05-11T08:13:58.145Z,14.02
2018-05-11T08:16:27.132Z,14.24
2018-05-11T08:18:55.786Z,14.02
2018-05-11T08:21:24.655Z,13.78
2018-05-11T08:23:53.534Z,13.81
2018-05-11T08:26:23.318Z,13.87
2018-05-11T08:28:51.601Z,13.97
2018-05-11T08:31:20.458Z,13.89
2018-05-11T08:33:49.656Z,13.90
2018-05-11T08:36:18.039Z,13.94
2018-05-11T08:38:46.876Z,14.15
2018-05-11T08:41:15.951Z,14.15
2018-05-11T08:43:44.326Z,14.20
2018-05-11T08:46:13.310Z,14.23
2018-05-11T08:48:43.031Z,14.10
2018-05-11T08:51:11.928Z,14.24
2018-05-11T08:53:40.317Z,14.28
2018-05-11T08:56:09.183Z,14.33
2018-05-11T08:58:37.494Z,14.27
2018-05-11T09:01:06.541Z,14.35
2018-05-11T09:03:35.251Z,14.38
2018-05-11T09:06:03.828Z,14.25
2018-05-11T09:08:32.122Z,14.44
2018-05-11T09:11:01.004Z,14.34
2018-05-11T09:13:29.389Z,14.38
2018-05-11T09:15:57.686Z,14.47
2018-05-11T09:18:26.430Z,14.65
2018-05-11T09:20:54.751Z,14.59
2018-05-11T09:23:24.395Z,14.63
2018-05-11T09:25:53.365Z,14.83
2018-05-11T09:28:21.724Z,14.83
2018-05-11T09:30:50.743Z,14.83
2018-05-11T09:33:20.425Z,14.90
2018-05-11T09:35:48.724Z,14.94
2018-05-11T09:38:17.068Z,15.00
2018-05-11T09:40:46.514Z,15.14
2018-05-11T09:43:15.593Z,15.06
2018-05-11T09:45:44.700Z,15.03
2018-05-11T09:48:12.966Z,14.95
2018-05-11T09:50:42.537Z,15.12
2018-05-11T09:53:10.920Z,15.18
2018-05-11T09:55:39.335Z,15.23
2018-05-11T09:58:08.130Z,15.23
2018-05-11T10:00:36.999Z,15.63
2018-05-11T10:03:05.703Z,15.69
2018-05-11T10:05:35.703Z,15.77
2018-05-11T10:08:04.058Z,15.78
2018-05-11T10:10:32.349Z,15.95
2018-05-11T10:13:01.228Z,15.98
2018-05-11T10:15:29.743Z,15.84
2018-05-11T10:17:58.142Z,15.79
2018-05-11T10:20:27.836Z,15.93
2018-05-11T10:22:56.150Z,16.01
2018-05-11T10:25:25.295Z,16.09
2018-05-11T10:27:54.295Z,16.42
2018-05-11T10:30:23.347Z,16.61
2018-05-11T10:32:52.407Z,16.53
2018-05-11T10:35:20.675Z,16.42
2018-05-11T10:37:49.182Z,16.48
2018-05-11T10:40:19.028Z,16.49
2018-05-11T10:42:47.291Z,16.38
2018-05-11T10:45:16.357Z,16.57
2018-05-11T10:47:44.647Z,16.70
2018-05-11T10:50:14.012Z,16.48
2018-05-11T10:52:42.399Z,16.56
2018-05-11T10:55:11.391Z,16.78
2018-05-11T10:57:40.421Z,16.67
2018-05-11T11:00:10.203Z,16.85
2018-05-11T11:02:38.479Z,17.06
2018-05-11T11:05:06.742Z,17.09
2018-05-11T11:07:35.181Z,17.14
2018-05-11T11:10:04.223Z,17.22
2018-05-11T11:12:32.897Z,17.48
2018-05-11T11:15:01.660Z,17.32
2018-05-11T11:17:31.440Z,17.31
2018-05-11T11:20:00.241Z,17.22
2018-05-11T11:22:28.978Z,17.30
2018-05-11T11:24:57.538Z,17.46
2018-05-11T11:27:27.282Z,17.62
2018-05-11T11:29:55.785Z,18.02
2018-05-11T11:32:24.052Z,17.75
2018-05-11T11:34:52.691Z,17.77
2018-05-11T11:37:21.762Z,17.82
2018-05-11T11:39:51.403Z,17.59
2018-05-11T11:42:21.195Z,17.67
2018-05-11T11:44:49.523Z,17.89
2018-05-11T11:47:18.590Z,17.96
2018-05-11T11:49:48.468Z,18.19
2018-05-11T11:52:18.313Z,18.30
2018-05-11T11:54:47.355Z,18.28
2018-05-11T11:57:15.659Z,18.36
2018-05-11T11:59:43.930Z,18.52
2018-05-11T12:02:12.610Z,18.38
2018-05-11T12:04:40.925Z,18.43
2018-05-11T12:07:10.065Z,18.66
2018-05-11T12:09:39.675Z,19.21
2018-05-11T12:12:08.659Z,19.98
2018-05-11T12:14:37.446Z,20.07
2018-05-11T12:17:05.721Z,20.37
2018-05-11T12:19:34.113Z,19.89
2018-05-11T12:22:02.801Z,20.21
2018-05-11T12:24:31.443Z,19.86
2018-05-11T12:27:01.443Z,19.09
2018-05-11T12:29:30.498Z,19.22
2018-05-11T12:31:58.778Z,18.56
2018-05-11T12:34:28.610Z,18.52
2018-05-11T12:36:57.644Z,18.36
2018-05-11T12:39:27.545Z,18.84
2018-05-11T12:41:56.898Z,19.03
2018-05-11T12:44:25.173Z,18.98
2018-05-11T12:46:53.570Z,19.19
2018-05-11T12:49:22.627Z,19.70
2018-05-11T12:51:51.491Z,20.14
2018-05-11T12:54:20.057Z,20.69
2018-05-11T12:56:49.244Z,21.23
2018-05-11T12:59:18.014Z,21.08
2018-05-11T13:01:47.026Z,20.29
2018-05-11T13:04:15.300Z,20.19
2018-05-11T13:06:45.223Z,20.12
2018-05-11T13:09:13.556Z,20.20
2018-05-11T13:11:42.587Z,20.16
2018-05-11T13:14:10.859Z,19.70
2018-05-11T13:16:39.163Z,19.77
2018-05-11T13:19:07.433Z,19.49
2018-05-11T13:21:35.735Z,19.61
2018-05-11T13:24:05.103Z,20.01
2018-05-11T13:26:33.381Z,20.38
2018-05-11T13:29:01.666Z,20.59
2018-05-11T13:31:30.155Z,21.48
2018-05-11T13:33:58.423Z,23.42
2018-05-11T13:36:26.970Z,24.64
2018-05-11T13:38:55.378Z,24.43
2018-05-11T13:41:24.919Z,24.78
2018-05-11T13:43:53.580Z,24.44
2018-05-11T13:46:22.483Z,25.71
2018-05-11T13:48:51.393Z,27.60
2018-05-11T13:51:19.953Z,29.24
2018-05-11T13:53:48.231Z,30.00
2018-05-11T13:56:16.529Z,28.79
2018-05-11T13:58:44.906Z,27.43
2018-05-11T14:01:13.228Z,24.87
2018-05-11T14:03:42.281Z,25.98
2018-05-11T14:06:11.338Z,27.75
2018-05-11T14:08:39.643Z,28.26
2018-05-11T14:11:07.934Z,27.80
2018-05-11T14:13:36.199Z,27.06
2018-05-11T14:16:04.612Z,28.24
2018-05-11T14:18:32.890Z,26.95
2018-05-11T14:21:02.899Z,25.82
2018-05-11T14:23:31.186Z,24.61
2018-05-11T14:25:59.474Z,26.55
2018-05-11T14:28:28.523Z,27.72
2018-05-11T14:30:56.898Z,26.98
2018-05-11T14:33:26.899Z,27.94
2018-05-11T14:35:55.844Z,28.44
2018-05-11T14:38:24.592Z,27.44
2018-05-11T14:40:52.885Z,27.63
2018-05-11T14:43:21.229Z,28.44
2018-05-11T14:45:49.827Z,28.15
2018-05-11T14:48:18.115Z,29.08
2018-05-11T14:50:47.116Z,29.67
2018-05-11T14:53:15.493Z,28.90
2018-05-11T14:55:43.785Z,28.58
2018-05-11T14:58:12.451Z,30.47
2018-05-11T15:00:41.755Z,31.11
2018-05-11T15:03:10.042Z,29.36
2018-05-11T15:05:38.315Z,25.26
2018-05-11T15:08:06.714Z,25.10
2018-05-11T15:10:35.079Z,25.66
2018-05-11T15:13:03.560Z,26.70
2018-05-11T15:15:32.573Z,27.36
2018-05-11T15:18:01.151Z,27.34
2018-05-11T15:20:29.426Z,27.93
2018-05-11T15:22:58.515Z,29.03
2018-05-11T15:25:26.790Z,28.77
2018-05-11T15:27:55.060Z,29.14
2018-05-11T15:30:23.350Z,28.09
2018-05-11T15:32:51.637Z,28.92
2018-05-11T15:35:19.923Z,29.70
2018-05-11T15:37:48.259Z,30.67
2018-05-11T15:40:16.551Z,30.28
2018-05-11T15:42:45.343Z,29.44
2018-05-11T15:45:13.614Z,29.20
2018-05-11T15:47:41.890Z,30.25
2018-05-11T15:50:10.270Z,30.75
2018-05-11T15:52:38.654Z,30.26
2018-05-11T15:55:06.944Z,29.46
2018-05-11T15:57:36.664Z,29.60
2018-05-11T16:00:04.965Z,28.86
2018-05-11T16:02:34.069Z,29.27
2018-05-11T16:05:03.123Z,28.70
2018-05-11T16:07:32.614Z,27.57
2018-05-11T16:10:00.889Z,26.12
2018-05-11T16:12:30.190Z,23.81
2018-05-11T16:14:59.298Z,23.77
2018-05-11T16:17:27.699Z,23.76
2018-05-11T16:19:56.290Z,23.28
2018-05-11T16:22:25.510Z,22.06
2018-05-11T16:24:53.938Z,21.83
2018-05-11T16:27:22.716Z,21.38
2018-05-11T16:29:51.025Z,21.09
2018-05-11T16:32:19.300Z,20.75
2018-05-11T16:34:48.892Z,20.27
2018-05-11T16:37:17.233Z,20.64
2018-05-11T16:39:45.462Z,20.76
2018-05-11T16:42:14.091Z,20.87
2018-05-11T16:44:43.733Z,20.57
2018-05-11T16:47:13.408Z,20.36
2018-05-11T16:49:43.168Z,20.37
2018-05-11T16:52:11.769Z,20.46
2018-05-11T16:54:40.066Z,20.51
2018-05-11T16:57:08.355Z,20.35
2018-05-11T16:59:36.689Z,20.46
2018-05-11T17:02:05.002Z,20.34
2018-05-11T17:04:34.535Z,20.25
2018-05-11T17:07:04.309Z,20.48
2018-05-11T17:09:32.601Z,20.41
2018-05-11T17:12:00.957Z,20.44
2018-05-11T17:14:30.419Z,20.45
2018-05-11T17:16:59.454Z,20.21
2018-05-11T17:19:28.223Z,20.39
2018-05-11T17:21:56.496Z,20.16
2018-05-11T17:24:24.766Z,20.01
2018-05-11T17:26:53.055Z,19.95
2018-05-11T17:29:21.942Z,19.67
2018-05-11T17:31:50.964Z,19.87
2018-05-11T17:34:19.951Z,19.92
2018-05-11T17:36:48.326Z,19.63
2018-05-11T17:39:17.230Z,19.38
2018-05-11T17:41:46.739Z,19.54
2018-05-11T17:44:15.038Z,19.45
2018-05-11T17:46:45.083Z,19.17
2018-05-11T17:49:14.615Z,19.36
2018-05-11T17:51:42.920Z,19.18
2018-05-11T17:54:11.219Z,19.09
2018-05-11T17:56:40.510Z,19.00
2018-05-11T17:59:08.797Z,19.04
2018-05-11T18:01:37.662Z,18.60
2018-05-11T18:04:06.053Z,18.60
2018-05-11T18:06:34.341Z,18.67
2018-05-11T18:09:03.240Z,18.77
2018-05-11T18:11:31.521Z,18.85
2018-05-11T18:14:02.047Z,18.66
2018-05-11T18:16:30.474Z,18.63
2018-05-11T18:18:58.863Z,18.60
2018-05-11T18:21:27.786Z,18.56
2018-05-11T18:23:56.510Z,18.49
2018-05-11T18:26:25.550Z,18.42
2018-05-11T18:28:53.858Z,18.37
2018-05-11T18:31:22.948Z,18.40
2018-05-11T18:33:51.223Z,18.35
2018-05-11T18:36:19.603Z,17.94
2018-05-11T18:38:47.886Z,17.72
2018-05-11T18:41:17.075Z,17.69
2018-05-11T18:43:46.094Z,17.56
2018-05-11T18:46:15.585Z,17.44
2018-05-11T18:48:43.862Z,17.45
2018-05-11T18:51:12.783Z,17.25
2018-05-11T18:53:42.239Z,17.16
2018-05-11T18:56:10.124Z,17.12
2018-05-11T18:58:38.459Z,16.93
2018-05-11T19:01:07.543Z,16.76
2018-05-11T19:03:37.224Z,16.64
2018-05-11T19:06:06.040Z,16.67
2018-05-11T19:08:35.159Z,16.45
2018-05-11T19:11:03.863Z,16.19
2018-05-11T19:13:32.194Z,16.32
2018-05-11T19:16:01.273Z,16.20
2018-05-11T19:18:29.902Z,16.20
2018-05-11T19:20:58.168Z,16.13
2018-05-11T19:23:27.586Z,16.18
2018-05-11T19:25:55.994Z,16.02
2018-05-11T19:28:24.271Z,16.01
2018-05-11T19:30:53.264Z,15.98
2018-05-11T19:33:21.587Z,16.05
2018-05-11T19:35:50.590Z,15.97
2018-05-11T19:38:19.641Z,15.92
2018-05-11T19:40:48.051Z,15.80
2018-05-11T19:43:17.690Z,15.73
2018-05-11T19:45:46.809Z,15.72
2018-05-11T19:48:15.106Z,15.64
2018-05-11T19:50:43.396Z,15.55
2018-05-11T19:53:11.698Z,15.64
2018-05-11T19:55:40.894Z,15.67
2018-05-11T19:58:10.579Z,15.53
2018-05-11T20:00:38.863Z,15.57
2018-05-11T20:03:07.143Z,15.54
2018-05-11T20:05:35.450Z,15.46
2018-05-11T20:08:05.129Z,15.32
2018-05-11T20:10:34.230Z,15.30
2018-05-11T20:13:02.811Z,15.32
2018-05-11T20:15:32.571Z,15.38
2018-05-11T20:18:01.607Z,15.41
2018-05-11T20:20:29.918Z,15.09
2018-05-11T20:22:58.807Z,15.12
2018-05-11T20:25:27.153Z,15.23
2018-05-11T20:27:55.540Z,15.17
2018-05-11T20:30:24.768Z,15.00
2018-05-11T20:32:53.118Z,14.96
2018-05-11T20:35:21.587Z,15.03
2018-05-11T20:37:51.132Z,14.95
2018-05-11T20:40:19.949Z,15.03
2018-05-11T20:42:49.035Z,14.92
2018-05-11T20:45:18.487Z,14.92
2018-05-11T20:47:47.416Z,15.06
2018-05-11T20:50:15.740Z,14.93
2018-05-11T20:52:44.844Z,14.95
2018-05-11T20:55:13.757Z,14.84
2018-05-11T20:57:42.097Z,15.00
2018-05-11T21:00:11.149Z,14.95
2018-05-11T21:02:39.499Z,14.79
2018-05-11T21:05:07.786Z,14.82
2018-05-11T21:07:36.178Z,14.79
2018-05-11T21:10:04.476Z,14.71
2018-05-11T21:12:32.808Z,14.77
2018-05-11T21:15:01.504Z,14.70
2018-05-11T21:17:30.939Z,14.85
2018-05-11T21:19:59.247Z,14.78
2018-05-11T21:22:28.332Z,14.75
2018-05-11T21:24:58.239Z,14.80
2018-05-11T21:27:26.602Z,14.73
2018-05-11T21:29:54.931Z,14.79
2018-05-11T21:32:23.207Z,14.72
2018-05-11T21:34:52.194Z,14.75
2018-05-11T21:37:21.328Z,14.53
2018-05-11T21:39:49.636Z,14.62
2018-05-11T21:42:18.191Z,14.70
2018-05-11T21:44:47.091Z,14.69
2018-05-11T21:47:15.364Z,14.72
2018-05-11T21:49:43.659Z,14.67
2018-05-11T21:52:12.091Z,14.71
2018-05-11T21:54:41.221Z,14.71
2018-05-11T21:57:09.555Z,14.71
2018-05-11T21:59:37.837Z,14.68
2018-05-11T22:02:07.508Z,14.63
2018-05-11T22:04:36.227Z,14.56
2018-05-11T22:07:05.499Z,14.41
2018-05-11T22:09:34.239Z,14.48
2018-05-11T22:12:02.528Z,14.38
2018-05-11T22:14:31.096Z,14.68
2018-05-11T22:17:00.055Z,14.38
2018-05-11T22:19:28.339Z,14.43
2018-05-11T22:21:57.273Z,14.59
2018-05-11T22:24:25.572Z,14.61
2018-05-11T22:26:54.657Z,14.63
2018-05-11T22:29:22.960Z,14.57
2018-05-11T22:31:51.415Z,14.57
2018-05-11T22:34:20.543Z,14.56
2018-05-11T22:36:49.228Z,14.52
2018-05-11T22:39:18.102Z,14.52
2018-05-11T22:41:47.090Z,14.41
2018-05-11T22:44:15.375Z,14.45
2018-05-11T22:46:43.876Z,14.32
2018-05-11T22:49:12.455Z,14.25
2018-05-11T22:51:41.048Z,14.26
2018-05-11T22:54:09.402Z,14.42
2018-05-11T22:56:38.607Z,14.30
2018-05-11T22:59:06.938Z,14.23
2018-05-11T23:01:37.559Z,14.25
2018-05-11T23:04:07.143Z,14.25
2018-05-11T23:06:35.919Z,14.22
2018-05-11T23:09:04.213Z,14.44
2018-05-11T23:11:32.522Z,14.28
2018-05-11T23:14:01.588Z,14.22
2018-05-11T23:16:30.769Z,14.09
2018-05-11T23:18:59.145Z,14.10
2018-05-11T23:21:27.411Z,14.17
2018-05-11T23:23:56.007Z,14.05
2018-05-11T23:26:25.203Z,13.99
2018-05-11T23:28:54.120Z,13.97
2018-05-11T23:31:22.490Z,14.05
2018-05-11T23:33:50.955Z,14.08
2018-05-11T23:36:19.231Z,13.86
2018-05-11T23:38:47.542Z,13.93
2018-05-11T23:41:16.448Z,13.86
2018-05-11T23:43:45.574Z,14.02
2018-05-11T23:46:14.090Z,13.92
2018-05-11T23:48:42.383Z,13.81
2018-05-11T23:51:10.696Z,13.83
2018-05-11T23:53:39.736Z,13.74
2018-05-11T23:56:08.131Z,13.76
2018-05-11T23:58:36.426Z,13.68
